Time;durP1;ratioP1;P1;durP2;ratioP2;P2;SDS_P1;SDS_P2;PMS_P1;PMS_P2;Temp;Humidity;BMP_temperature;BMP_pressure;BME280_temperature;BME280_humidity;BME280_pressure;Samples;Min_cycle;Max_cycle;Signal;HPM_P1;HPM_P2
2022/09/28 00:01:15;;;;;;;1.60;0.77;;;8.90;99.90;;;;;;4992597;28;20400;-73
2022/09/28 00:03:41;;;;;;;1.00;0.67;;;9.00;99.90;;;;;;4992774;28;20408;-73
2022/09/28 00:06:10;;;;;;;1.87;0.80;;;9.00;99.90;;;;;;4992599;28;20957;-70
2022/09/28 00:08:36;;;;;;;1.40;0.87;;;9.00;99.90;;;;;;4992471;28;20169;-73
2022/09/28 00:11:03;;;;;;;1.47;1.07;;;9.00;99.90;;;;;;4992325;28;20404;-73
2022/09/28 00:13:31;;;;;;;1.27;0.90;;;9.10;99.90;;;;;;4990793;28;20778;-73
2022/09/28 00:16:04;;;;;;;1.70;0.90;;;9.00;99.90;;;;;;4991991;28;20507;-73
2022/09/28 00:18:30;;;;;;;1.37;0.90;;;9.10;99.90;;;;;;4992808;28;20423;-73
2022/09/28 00:21:04;;;;;;;1.20;0.77;;;9.10;99.90;;;;;;4992735;28;20400;-72
2022/09/28 00:23:30;;;;;;;2.33;1.00;;;9.10;99.90;;;;;;4991758;28;20415;-71
2022/09/28 00:25:59;;;;;;;1.10;0.70;;;9.10;99.90;;;;;;4992465;28;20428;-71
2022/09/28 00:28:25;;;;;;;1.80;1.07;;;9.10;99.90;;;;;;4992708;28;20574;-72
2022/09/28 00:30:55;;;;;;;7.33;1.40;;;9.20;99.90;;;;;;4992481;28;20415;-71
2022/09/28 00:33:21;;;;;;;1.20;0.80;;;9.20;99.90;;;;;;4992543;28;20243;-71
2022/09/28 00:35:53;;;;;;;1.30;0.87;;;9.20;99.90;;;;;;4993345;28;21008;-71
2022/09/28 00:38:19;;;;;;;3.00;0.73;;;9.30;99.90;;;;;;4995092;28;20424;-71
2022/09/28 00:40:44;;;;;;;1.17;0.77;;;9.30;99.90;;;;;;4996127;28;20419;-71
2022/09/28 00:43:19;;;;;;;1.97;0.80;;;9.20;99.90;;;;;;4996132;28;20177;-71
2022/09/28 00:45:55;;;;;;;1.30;0.97;;;9.20;99.90;;;;;;4995629;28;20685;-73
2022/09/28 00:48:21;;;;;;;1.20;0.93;;;9.20;99.90;;;;;;4994643;28;20450;-71
2022/09/28 00:50:47;;;;;;;1.30;0.90;;;9.20;99.90;;;;;;4995692;28;20490;-72
2022/09/28 00:53:22;;;;;;;1.40;0.80;;;9.30;99.90;;;;;;4995726;28;20409;-71
2022/09/28 00:55:52;;;;;;;1.10;0.80;;;9.30;99.90;;;;;;4995349;28;20227;-71
2022/09/28 00:58:23;;;;;;;1.53;0.90;;;9.30;99.90;;;;;;4996023;28;20500;-72
2022/09/28 01:00:49;;;;;;;1.20;0.80;;;9.20;99.90;;;;;;4995695;28;20408;-71
2022/09/28 01:03:15;;;;;;;1.77;0.93;;;9.30;99.90;;;;;;4995647;28;20774;-71
2022/09/28 01:05:43;;;;;;;1.77;1.30;;;9.20;99.90;;;;;;4995221;28;20197;-71
2022/09/28 01:08:10;;;;;;;2.73;1.60;;;9.20;99.90;;;;;;4995647;28;20838;-72
2022/09/28 01:10:38;;;;;;;1.47;1.00;;;9.20;99.90;;;;;;4995237;28;20427;-71
2022/09/28 01:13:03;;;;;;;1.73;1.13;;;9.20;99.90;;;;;;4995281;28;20400;-71
2022/09/28 01:15:33;;;;;;;2.80;1.43;;;9.20;99.90;;;;;;4994991;28;21123;-71
2022/09/28 01:18:29;;;;;;;2.50;1.80;;;9.20;99.90;;;;;;4995025;28;20178;-71
2022/09/28 01:21:21;;;;;;;1.87;1.07;;;9.20;99.90;;;;;;4995485;28;20407;-71
2022/09/28 01:23:58;;;;;;;1.60;1.10;;;9.20;99.90;;;;;;4995336;28;20412;-71
2022/09/28 01:26:32;;;;;;;3.37;1.70;;;9.20;99.90;;;;;;4994907;28;20455;-71
2022/09/28 01:29:15;;;;;;;1.57;0.93;;;9.20;99.90;;;;;;4995530;28;20933;-71
2022/09/28 01:31:47;;;;;;;2.03;1.33;;;9.10;99.90;;;;;;4995030;28;20777;-71
2022/09/28 01:34:19;;;;;;;2.07;1.20;;;9.10;99.90;;;;;;4994991;28;20509;-71
2022/09/28 01:36:49;;;;;;;1.73;1.47;;;9.10;99.90;;;;;;4994742;28;20424;-71
2022/09/28 01:39:20;;;;;;;3.73;2.43;;;9.10;99.90;;;;;;4994531;28;20414;-71
2022/09/28 01:41:50;;;;;;;2.97;1.90;;;9.10;99.90;;;;;;4994524;28;20798;-71
2022/09/28 01:44:18;;;;;;;2.90;2.33;;;9.10;99.90;;;;;;4994275;28;20858;-71
2022/09/28 01:46:47;;;;;;;3.30;2.00;;;9.10;99.90;;;;;;4993697;28;21006;-72
2022/09/28 01:49:24;;;;;;;2.83;2.27;;;9.20;99.90;;;;;;4994003;28;20397;-72
2022/09/28 01:52:05;;;;;;;3.33;2.43;;;9.10;99.90;;;;;;4994396;28;20750;-71
2022/09/28 01:54:40;;;;;;;16.83;10.20;;;9.10;99.90;;;;;;4994159;28;20550;-71
2022/09/28 01:57:14;;;;;;;3.50;2.60;;;9.10;99.90;;;;;;4994288;28;20451;-72
2022/09/28 01:59:48;;;;;;;4.07;3.67;;;9.10;99.90;;;;;;4994133;28;20403;-71
2022/09/28 02:02:17;;;;;;;3.60;2.63;;;9.10;99.90;;;;;;4994512;28;20956;-72
2022/09/28 02:05:12;;;;;;;6.30;3.03;;;9.10;99.90;;;;;;4993891;28;20440;-72
2022/09/28 02:07:41;;;;;;;3.03;2.73;;;9.10;99.90;;;;;;4991101;28;20491;-72
2022/09/28 02:10:18;;;;;;;3.67;2.47;;;9.10;99.90;;;;;;4994211;28;20447;-72
2022/09/28 02:13:06;;;;;;;3.67;2.73;;;9.10;99.90;;;;;;4994300;28;20411;-72
2022/09/28 02:15:57;;;;;;;7.70;3.30;;;9.10;99.90;;;;;;4991916;28;20456;-72
2022/09/28 02:18:23;;;;;;;5.03;2.97;;;9.10;99.90;;;;;;4993882;28;20405;-72
2022/09/28 02:21:00;;;;;;;5.00;3.37;;;9.00;99.90;;;;;;4994056;28;20431;-72
2022/09/28 02:23:27;;;;;;;6.37;3.60;;;9.00;99.90;;;;;;4992748;28;20443;-72
2022/09/28 02:26:05;;;;;;;3.60;2.90;;;8.90;99.90;;;;;;4993580;28;20832;-73
2022/09/28 02:28:30;;;;;;;5.20;3.23;;;8.90;99.90;;;;;;4992743;28;20408;-73
2022/09/28 02:30:56;;;;;;;4.90;3.70;;;8.80;99.90;;;;;;4993794;28;20411;-71
2022/09/28 02:33:32;;;;;;;5.33;3.77;;;8.70;99.90;;;;;;4993737;28;20188;-73
2022/09/28 02:35:59;;;;;;;4.37;3.80;;;8.70;99.90;;;;;;4993424;28;20188;-72
2022/09/28 02:38:25;;;;;;;3.70;3.10;;;8.60;99.90;;;;;;4992338;28;20522;-72
2022/09/28 02:41:04;;;;;;;6.10;3.40;;;8.60;99.90;;;;;;4993805;28;20431;-72
2022/09/28 02:44:14;;;;;;;6.17;4.27;;;8.70;99.90;;;;;;4993374;28;20165;-72
2022/09/28 02:47:03;;;;;;;6.77;3.97;;;8.80;99.90;;;;;;4971574;28;20429;-72
2022/09/28 02:49:51;;;;;;;5.17;4.37;;;8.90;99.90;;;;;;4971485;28;20480;-72
2022/09/28 02:52:50;;;;;;;31.60;18.40;;;9.00;99.90;;;;;;4988813;28;20439;-71
2022/09/28 02:55:27;;;;;;;6.73;4.40;;;9.10;99.90;;;;;;4992414;28;20457;-72
2022/09/28 02:58:02;;;;;;;7.10;4.53;;;9.20;99.90;;;;;;4993139;28;20400;-72
2022/09/28 03:00:29;;;;;;;7.13;3.60;;;9.20;99.90;;;;;;4993304;28;20430;-73
2022/09/28 03:03:19;;;;;;;6.60;5.13;;;9.20;99.90;;;;;;4993265;28;20994;-73
2022/09/28 03:06:14;;;;;;;8.30;4.73;;;9.20;99.90;;;;;;4992993;28;20929;-71
2022/09/28 03:08:50;;;;;;;11.40;5.00;;;9.20;99.90;;;;;;4992953;28;20438;-71
2022/09/28 03:11:23;;;;;;;6.67;5.47;;;9.30;99.90;;;;;;4992835;28;20466;-72
2022/09/28 03:13:49;;;;;;;12.90;8.80;;;9.30;99.90;;;;;;4992752;28;20467;-71
2022/09/28 03:16:18;;;;;;;24.80;15.73;;;9.30;99.90;;;;;;4992700;28;20515;-72
2022/09/28 03:18:44;;;;;;;111.27;50.13;;;9.30;99.90;;;;;;4992991;28;20419;-71
2022/09/28 03:21:14;;;;;;;6.93;5.90;;;9.40;99.90;;;;;;4992635;28;20400;-72
2022/09/28 03:23:40;;;;;;;8.70;5.40;;;9.40;99.90;;;;;;4992780;28;20404;-71
2022/09/28 03:26:12;;;;;;;10.40;5.07;;;9.40;99.90;;;;;;4992431;28;20565;-72
2022/09/28 03:28:38;;;;;;;7.80;5.23;;;9.50;99.90;;;;;;4993003;28;20511;-71
2022/09/28 03:31:04;;;;;;;11.70;4.10;;;9.50;99.90;;;;;;4992607;28;20546;-71
2022/09/28 03:33:29;;;;;;;8.80;4.70;;;9.50;99.90;;;;;;4992578;28;20400;-72
2022/09/28 03:35:55;;;;;;;9.10;6.00;;;9.60;99.90;;;;;;4992017;28;20204;-72
2022/09/28 03:38:20;;;;;;;10.80;5.57;;;9.60;99.90;;;;;;4991585;28;20234;-72
2022/09/28 03:40:57;;;;;;;8.07;5.50;;;9.70;99.90;;;;;;4992587;28;20292;-71
2022/09/28 03:43:24;;;;;;;8.53;5.40;;;9.70;99.90;;;;;;4992872;28;20172;-72
2022/09/28 03:46:00;;;;;;;9.40;5.60;;;9.70;99.90;;;;;;4992521;28;20431;-72
2022/09/28 03:48:29;;;;;;;7.87;5.37;;;9.70;99.90;;;;;;4992735;28;20415;-72
2022/09/28 03:50:56;;;;;;;6.57;5.37;;;9.80;99.90;;;;;;4992147;28;20428;-72
2022/09/28 03:53:22;;;;;;;7.37;4.90;;;9.80;99.90;;;;;;4990978;28;20946;-72
2022/09/28 03:55:49;;;;;;;11.40;6.17;;;9.80;99.90;;;;;;4992124;28;20460;-72
2022/09/28 03:58:15;;;;;;;7.63;4.43;;;9.80;99.90;;;;;;4991281;28;20206;-72
2022/09/28 04:00:41;;;;;;;8.53;5.27;;;9.90;99.90;;;;;;4992403;28;20443;-72
2022/09/28 04:03:07;;;;;;;8.03;5.80;;;9.80;99.90;;;;;;4992504;28;20409;-72
2022/09/28 04:05:32;;;;;;;10.83;7.50;;;9.90;99.90;;;;;;4992045;28;20267;-72
2022/09/28 04:07:58;;;;;;;6.00;4.43;;;9.80;99.90;;;;;;4992490;28;20408;-73
2022/09/28 04:10:25;;;;;;;5.23;4.73;;;9.90;99.90;;;;;;4993143;28;20173;-72
2022/09/28 04:12:55;;;;;;;6.70;4.53;;;9.80;99.90;;;;;;4996319;28;20168;-72
2022/09/28 04:15:20;;;;;;;6.03;4.83;;;9.80;99.90;;;;;;4995949;28;20991;-72
2022/09/28 04:17:47;;;;;;;4.80;4.30;;;9.70;99.90;;;;;;4995984;28;20408;-72
2022/09/28 04:20:13;;;;;;;5.63;4.90;;;9.70;99.90;;;;;;4995908;28;20177;-72
2022/09/28 04:22:38;;;;;;;6.87;5.57;;;9.70;99.90;;;;;;4996097;28;20407;-72
2022/09/28 04:25:04;;;;;;;6.83;5.20;;;9.70;99.90;;;;;;4995653;28;20400;-72
2022/09/28 04:30:14;;;;;;;7.50;4.63;;;9.70;99.90;;;;;;4996128;28;20916;-72
2022/09/28 04:32:40;;;;;;;5.27;4.67;;;9.70;99.90;;;;;;4995804;28;20404;-72
2022/09/28 04:35:06;;;;;;;7.87;5.40;;;9.70;99.90;;;;;;4994215;28;20539;-72
2022/09/28 04:37:32;;;;;;;8.20;5.17;;;9.70;99.90;;;;;;4995667;28;20434;-73
2022/09/28 04:39:58;;;;;;;5.73;4.30;;;9.70;99.90;;;;;;4995623;28;20169;-72
2022/09/28 04:42:23;;;;;;;9.10;4.03;;;9.70;99.90;;;;;;4995680;28;20411;-72
2022/09/28 04:44:49;;;;;;;7.00;3.83;;;9.70;99.90;;;;;;4995371;28;20863;-72
2022/09/28 04:47:14;;;;;;;4.93;4.03;;;9.70;99.90;;;;;;4995028;28;20185;-72
2022/09/28 04:49:40;;;;;;;7.13;4.43;;;9.70;99.90;;;;;;4994096;28;20549;-72
2022/09/28 04:52:06;;;;;;;8.37;4.50;;;9.70;99.90;;;;;;4995518;28;20200;-72
2022/09/28 04:54:31;;;;;;;9.10;4.13;;;9.60;99.90;;;;;;4995128;28;20252;-72
2022/09/28 04:56:57;;;;;;;114.93;49.10;;;9.50;99.90;;;;;;4995240;28;20428;-72
2022/09/28 04:59:23;;;;;;;11.47;6.43;;;9.50;99.90;;;;;;4995441;28;20165;-72
2022/09/28 05:01:48;;;;;;;7.87;3.73;;;9.40;99.90;;;;;;4995311;28;20176;-72
2022/09/28 05:04:14;;;;;;;7.20;4.77;;;9.40;99.90;;;;;;4994975;28;20187;-71
2022/09/28 05:06:39;;;;;;;4.73;4.20;;;9.30;99.90;;;;;;4995102;28;20272;-73
2022/09/28 05:09:05;;;;;;;6.27;3.80;;;9.30;99.90;;;;;;4995207;28;20173;-72
2022/09/28 05:11:31;;;;;;;7.50;4.67;;;9.30;99.90;;;;;;4993826;28;20242;-72
2022/09/28 05:13:56;;;;;;;5.07;3.90;;;9.30;99.90;;;;;;4995011;28;20526;-71
2022/09/28 05:16:24;;;;;;;9.37;4.60;;;9.30;99.90;;;;;;4994751;28;20243;-72
2022/09/28 05:18:54;;;;;;;5.47;4.80;;;9.20;99.90;;;;;;4995055;28;20168;-72
2022/09/28 05:21:19;;;;;;;5.93;4.23;;;9.20;99.90;;;;;;4994862;28;20435;-71
2022/09/28 05:23:46;;;;;;;7.37;5.40;;;9.20;99.90;;;;;;4995072;28;20404;-72
2022/09/28 05:26:12;;;;;;;4.90;4.20;;;9.30;99.90;;;;;;4994727;28;20204;-72
2022/09/28 05:28:37;;;;;;;7.03;5.60;;;9.30;99.90;;;;;;4995182;28;20408;-72
2022/09/28 05:31:04;;;;;;;10.53;4.87;;;9.30;99.90;;;;;;4994977;28;20204;-72
2022/09/28 05:33:30;;;;;;;8.00;5.33;;;9.30;99.90;;;;;;4994928;28;20170;-72
2022/09/28 05:35:56;;;;;;;7.43;4.40;;;9.20;99.90;;;;;;4994420;28;20941;-72
2022/09/28 05:38:22;;;;;;;7.20;5.30;;;9.30;99.90;;;;;;4994641;28;20392;-72
2022/09/28 05:40:48;;;;;;;5.83;3.97;;;9.30;99.90;;;;;;4994710;28;20220;-72
2022/09/28 05:43:13;;;;;;;10.37;4.73;;;9.30;99.90;;;;;;4994591;28;20408;-72
2022/09/28 05:45:39;;;;;;;12.30;4.20;;;9.30;99.90;;;;;;4994223;28;20224;-72
2022/09/28 05:48:05;;;;;;;6.23;4.00;;;9.40;99.90;;;;;;4994626;28;20180;-72
2022/09/28 05:50:30;;;;;;;6.70;4.20;;;9.30;99.90;;;;;;4994418;28;20189;-72
2022/09/28 05:53:00;;;;;;;8.17;4.30;;;9.40;99.90;;;;;;4994352;28;20169;-72
2022/09/28 05:55:26;;;;;;;5.60;3.80;;;9.30;99.90;;;;;;4994118;28;20192;-72
2022/09/28 05:57:52;;;;;;;6.10;4.00;;;9.40;99.90;;;;;;4993350;28;20435;-71
2022/09/28 06:00:18;;;;;;;5.17;3.50;;;9.40;99.90;;;;;;4993113;28;20435;-72
2022/09/28 06:02:44;;;;;;;5.33;3.77;;;9.40;99.90;;;;;;4994097;28;20248;-72
2022/09/28 06:05:09;;;;;;;10.50;4.53;;;9.40;99.90;;;;;;4993879;28;20173;-72
2022/09/28 06:07:35;;;;;;;4.83;3.23;;;9.40;99.90;;;;;;4994089;28;20443;-72
2022/09/28 06:10:00;;;;;;;6.53;4.13;;;9.50;99.90;;;;;;4994027;28;20169;-71
2022/09/28 06:12:26;;;;;;;6.90;4.13;;;9.60;99.90;;;;;;4993732;28;20173;-72
2022/09/28 06:14:52;;;;;;;10.37;4.40;;;9.60;99.90;;;;;;4993648;28;20204;-72
2022/09/28 06:17:17;;;;;;;6.40;3.97;;;9.60;99.90;;;;;;4993748;28;20428;-72
2022/09/28 06:19:43;;;;;;;6.20;4.20;;;9.70;99.90;;;;;;4993892;28;20165;-72
2022/09/28 06:22:08;;;;;;;5.90;4.83;;;9.70;99.90;;;;;;4992614;28;20164;-72
2022/09/28 06:24:34;;;;;;;5.50;3.87;;;9.70;99.90;;;;;;4992155;28;20231;-72
2022/09/28 06:26:59;;;;;;;5.17;3.53;;;9.80;99.90;;;;;;4993724;28;20558;-72
2022/09/28 06:29:25;;;;;;;5.30;3.70;;;9.80;99.90;;;;;;4992339;28;20176;-72
2022/09/28 06:31:50;;;;;;;5.90;4.10;;;9.80;99.90;;;;;;4993902;28;20173;-71
2022/09/28 06:34:17;;;;;;;10.60;3.90;;;9.80;99.90;;;;;;4992764;28;20189;-71
2022/09/28 06:36:43;;;;;;;4.27;2.93;;;9.90;99.90;;;;;;4993308;28;20223;-72
2022/09/28 06:39:08;;;;;;;4.63;3.73;;;10.00;99.90;;;;;;4993391;28;20428;-72
2022/09/28 06:41:34;;;;;;;3.90;3.27;;;10.00;99.90;;;;;;4993509;28;20255;-72
2022/09/28 06:44:00;;;;;;;4.13;2.70;;;10.10;99.90;;;;;;4992207;28;20223;-72
2022/09/28 06:46:26;;;;;;;5.93;4.00;;;10.20;99.90;;;;;;4992946;28;20543;-72
2022/09/28 06:48:53;;;;;;;3.50;2.50;;;10.10;99.90;;;;;;4993563;28;20408;-72
2022/09/28 06:51:18;;;;;;;4.60;3.27;;;10.20;99.90;;;;;;4993410;28;20210;-72
2022/09/28 06:53:44;;;;;;;3.83;2.87;;;10.20;99.90;;;;;;4993069;28;20404;-72
2022/09/28 06:56:10;;;;;;;4.03;3.10;;;10.20;99.90;;;;;;4992888;28;20315;-72
2022/09/28 06:58:36;;;;;;;12.27;4.23;;;10.40;99.90;;;;;;4993287;28;20165;-72
2022/09/28 07:01:02;;;;;;;3.70;2.57;;;10.40;99.90;;;;;;4993247;28;20407;-72
2022/09/28 07:03:28;;;;;;;3.13;2.43;;;10.50;99.90;;;;;;4993254;28;20411;-72
2022/09/28 07:05:55;;;;;;;2.83;2.30;;;10.50;99.90;;;;;;4992892;28;20451;-73
2022/09/28 07:08:27;;;;;;;3.20;2.70;;;10.60;99.90;;;;;;4992068;28;20204;-73
2022/09/28 07:10:56;;;;;;;3.80;2.50;;;10.70;99.90;;;;;;4993320;28;20408;-72
2022/09/28 07:13:24;;;;;;;3.20;2.43;;;10.80;99.90;;;;;;4993030;28;20765;-72
2022/09/28 07:15:58;;;;;;;2.50;2.00;;;10.90;99.90;;;;;;4992439;28;20487;-73
2022/09/28 07:18:25;;;;;;;2.80;2.30;;;11.00;99.90;;;;;;4992876;28;20780;-73
2022/09/28 07:20:50;;;;;;;3.50;2.57;;;11.10;99.90;;;;;;4991548;28;20447;-73
2022/09/28 07:23:17;;;;;;;2.43;2.23;;;11.10;99.90;;;;;;4992893;28;20829;-73
2022/09/28 07:25:46;;;;;;;2.53;2.20;;;11.10;99.90;;;;;;4992570;28;20562;-73
2022/09/28 07:28:11;;;;;;;6.33;2.17;;;11.10;99.90;;;;;;4993028;28;20507;-73
2022/09/28 07:30:37;;;;;;;3.93;2.27;;;11.20;99.90;;;;;;4993043;28;20499;-77
2022/09/28 07:33:05;;;;;;;4.43;2.70;;;11.40;99.90;;;;;;4993074;28;20211;-77
2022/09/28 07:35:31;;;;;;;4.00;2.00;;;11.50;99.90;;;;;;4992541;28;20217;-73
2022/09/28 07:38:02;;;;;;;2.70;2.10;;;11.60;99.90;;;;;;4992984;28;20408;-73
2022/09/28 07:43:13;;;;;;;2.73;1.60;;;12.00;99.90;;;;;;4993038;28;20818;-73
2022/09/28 07:45:41;;;;;;;1.97;1.70;;;12.00;99.90;;;;;;4993640;28;20458;-73
2022/09/28 07:48:07;;;;;;;2.67;2.03;;;12.10;99.90;;;;;;4997090;28;20639;-73
2022/09/28 07:50:32;;;;;;;3.63;2.30;;;12.10;99.90;;;;;;4996694;28;20470;-72
2022/09/28 07:52:59;;;;;;;2.63;1.47;;;12.10;99.90;;;;;;4996745;28;20205;-73
2022/09/28 07:55:25;;;;;;;2.03;1.50;;;12.10;99.90;;;;;;4995229;28;20566;-73
2022/09/28 07:57:55;;;;;;;2.90;2.37;;;12.10;99.90;;;;;;4996729;28;20408;-73
2022/09/28 08:00:20;;;;;;;2.33;1.77;;;12.10;99.90;;;;;;4996606;28;20917;-73
2022/09/28 08:02:47;;;;;;;2.37;2.17;;;12.10;99.90;;;;;;4996728;28;20447;-73
2022/09/28 08:05:12;;;;;;;2.87;1.80;;;12.10;99.90;;;;;;4995179;28;20164;-73
2022/09/28 08:07:38;;;;;;;1.87;1.53;;;12.10;99.90;;;;;;4995140;28;20423;-73
2022/09/28 08:10:04;;;;;;;2.60;1.70;;;12.10;99.90;;;;;;4996359;28;20252;-73
2022/09/28 08:12:30;;;;;;;2.57;1.70;;;12.10;99.90;;;;;;4996581;28;20238;-73
2022/09/28 08:14:55;;;;;;;1.53;1.30;;;12.20;99.90;;;;;;4995859;28;20444;-73
2022/09/28 08:17:21;;;;;;;2.10;1.40;;;12.40;99.90;;;;;;4996273;28;20185;-73
2022/09/28 08:22:31;;;;;;;1.70;1.60;;;12.50;99.90;;;;;;4996286;28;20180;-73
2022/09/28 08:24:57;;;;;;;3.37;2.20;;;12.70;99.90;;;;;;4994890;28;20416;-73
2022/09/28 08:27:22;;;;;;;2.47;2.00;;;12.80;99.90;;;;;;4995980;28;20971;-73
2022/09/28 08:29:48;;;;;;;2.87;2.40;;;13.00;99.90;;;;;;4996138;28;20408;-72
2022/09/28 08:32:13;;;;;;;2.80;2.30;;;13.10;99.90;;;;;;4996167;28;20424;-72
2022/09/28 08:34:40;;;;;;;2.53;2.33;;;13.10;99.90;;;;;;4995832;28;20736;-72
2022/09/28 08:37:11;;;;;;;2.23;2.00;;;13.10;99.90;;;;;;4995858;28;20710;-72
2022/09/28 08:39:36;;;;;;;4.00;2.50;;;13.10;99.90;;;;;;4996046;28;20811;-72
2022/09/28 08:42:21;;;;;;;2.00;1.80;;;13.30;99.90;;;;;;4995911;28;20454;-73
2022/09/28 08:44:56;;;;;;;4.37;2.00;;;13.50;99.90;;;;;;4995731;28;20442;-73
2022/09/28 08:50:25;;;;;;;2.60;1.47;;;14.00;99.90;;;;;;4996010;28;20972;-73
2022/09/28 08:52:58;;;;;;;1.97;1.50;;;14.00;99.90;;;;;;4995796;28;20415;-73
2022/09/28 08:55:33;;;;;;;3.83;2.23;;;14.20;99.90;;;;;;4995443;28;20538;-73
2022/09/28 08:58:19;;;;;;;2.40;2.10;;;14.40;99.90;;;;;;4995084;28;20410;-73
2022/09/28 09:00:47;;;;;;;4.27;2.87;;;14.30;99.90;;;;;;4995130;28;20399;-73
2022/09/28 09:03:17;;;;;;;1.53;1.30;;;14.40;99.90;;;;;;4995380;28;20400;-73
2022/09/28 09:06:18;;;;;;;5.30;1.57;;;14.60;99.90;;;;;;4994822;28;20443;-72
2022/09/28 09:08:54;;;;;;;1.70;1.33;;;14.90;99.90;;;;;;4995098;28;20446;-73
2022/09/28 09:11:23;;;;;;;2.97;1.20;;;15.00;99.90;;;;;;4994968;28;20400;-73
2022/09/28 09:13:57;;;;;;;4.13;1.30;;;15.20;99.90;;;;;;4995461;28;20808;-74
2022/09/28 09:16:34;;;;;;;3.37;1.37;;;15.40;99.90;;;;;;4995238;28;20988;-73
2022/09/28 09:19:12;;;;;;;3.30;1.10;;;15.60;99.90;;;;;;4995453;28;20967;-73
2022/09/28 09:22:01;;;;;;;2.40;1.47;;;15.70;99.90;;;;;;4995356;28;20430;-73
2022/09/28 09:24:40;;;;;;;1.10;0.70;;;15.90;99.90;;;;;;4994856;28;21011;-73
2022/09/28 09:27:29;;;;;;;2.50;1.20;;;16.10;99.90;;;;;;4995591;28;20860;-73
2022/09/28 09:30:05;;;;;;;1.50;1.27;;;16.40;99.90;;;;;;4994664;28;20412;-76
2022/09/28 09:32:53;;;;;;;2.30;1.30;;;16.70;99.90;;;;;;4994961;28;20396;-76
2022/09/28 09:35:36;;;;;;;5.43;0.87;;;17.10;99.90;;;;;;4994332;28;20443;-71
2022/09/28 09:38:22;;;;;;;4.33;1.23;;;18.00;99.90;;;;;;4994698;28;20918;-71
2022/09/28 09:41:24;;;;;;;2.00;0.90;;;19.40;99.90;;;;;;4994952;28;20431;-72
2022/09/28 09:44:20;;;;;;;1.10;0.80;;;22.00;99.90;;;;;;4981103;28;20412;-72
2022/09/28 09:46:52;;;;;;;1.73;0.90;;;24.80;92.90;;;;;;4994354;28;20920;-72
2022/09/28 09:49:23;;;;;;;1.30;0.83;;;26.80;73.70;;;;;;4994388;28;20813;-72
2022/09/28 09:52:18;;;;;;;1.87;1.20;;;28.30;63.00;;;;;;4994403;28;20447;-72
2022/09/28 09:55:00;;;;;;;9.63;1.50;;;29.10;57.20;;;;;;4989930;28;20460;-72
2022/09/28 09:57:38;;;;;;;1.50;1.00;;;29.50;53.40;;;;;;4994287;28;20506;-72
2022/09/28 10:00:10;;;;;;;1.43;1.03;;;28.80;51.00;;;;;;4994271;28;20815;-72
2022/09/28 10:02:38;;;;;;;1.83;1.07;;;28.60;51.70;;;;;;4994379;28;20898;-72
2022/09/28 10:05:22;;;;;;;1.33;0.80;;;29.10;51.90;;;;;;4993975;28;20467;-72
2022/09/28 10:08:10;;;;;;;1.60;1.33;;;31.00;50.90;;;;;;4992257;28;20412;-72
2022/09/28 10:10:45;;;;;;;1.50;0.90;;;31.60;47.20;;;;;;4994357;28;20445;-72
2022/09/28 10:13:10;;;;;;;2.00;1.03;;;31.70;45.50;;;;;;4993473;28;20970;-72
2022/09/28 10:15:36;;;;;;;14.70;2.17;;;31.70;44.30;;;;;;4993982;28;20466;-72
2022/09/28 10:18:10;;;;;;;1.30;0.83;;;30.90;44.10;;;;;;4993012;28;20169;-72
2022/09/28 10:20:41;;;;;;;1.20;0.90;;;29.80;45.10;;;;;;4994217;28;20572;-72
2022/09/28 10:23:16;;;;;;;1.67;1.17;;;30.70;44.30;;;;;;4993876;28;20411;-73
2022/09/28 10:25:44;;;;;;;2.13;1.10;;;31.30;44.40;;;;;;4993491;28;20991;-73
2022/09/28 10:28:18;;;;;;;1.70;0.90;;;31.80;43.60;;;;;;4993821;28;20466;-73
2022/09/28 10:30:43;;;;;;;1.87;1.00;;;32.30;43.20;;;;;;4994149;28;20507;-73
2022/09/28 10:33:29;;;;;;;1.60;1.30;;;33.40;42.80;;;;;;4993991;28;20491;-73
2022/09/28 10:35:54;;;;;;;1.87;0.97;;;34.10;40.30;;;;;;4993835;28;20201;-73
2022/09/28 10:38:21;;;;;;;2.27;1.20;;;33.80;38.90;;;;;;4994427;28;20922;-72
2022/09/28 10:40:48;;;;;;;1.20;0.80;;;32.80;38.90;;;;;;4993487;28;20188;-72
2022/09/28 10:43:29;;;;;;;1.30;0.80;;;31.90;41.10;;;;;;4994132;28;20404;-72
2022/09/28 10:46:06;;;;;;;2.60;1.03;;;30.80;40.60;;;;;;4993873;28;20423;-73
2022/09/28 10:49:04;;;;;;;3.00;1.57;;;30.90;42.80;;;;;;4992789;28;20419;-72
2022/09/28 10:51:59;;;;;;;1.80;0.83;;;31.80;40.80;;;;;;4991996;28;20941;-72
2022/09/28 10:54:27;;;;;;;1.70;1.13;;;31.40;41.60;;;;;;4988705;28;20470;-73
2022/09/28 10:56:54;;;;;;;1.20;0.90;;;31.90;42.30;;;;;;4993257;28;20483;-73
2022/09/28 10:59:22;;;;;;;7.50;1.20;;;31.30;40.50;;;;;;4993223;28;20436;-73
2022/09/28 11:01:55;;;;;;;1.87;1.43;;;30.10;41.80;;;;;;4993155;28;20396;-72
2022/09/28 11:04:25;;;;;;;1.93;1.13;;;28.90;43.40;;;;;;4993144;28;20455;-72
2022/09/28 11:06:51;;;;;;;1.10;0.80;;;27.50;44.40;;;;;;4991654;28;20439;-72
2022/09/28 11:09:29;;;;;;;1.57;0.93;;;27.00;47.40;;;;;;4992161;28;20427;-72
2022/09/28 11:11:57;;;;;;;1.30;1.17;;;26.70;47.40;;;;;;4992968;28;20173;-74
2022/09/28 11:14:36;;;;;;;2.27;0.93;;;27.40;47.90;;;;;;4993088;28;20463;-73
2022/09/28 11:17:24;;;;;;;2.47;0.90;;;28.80;46.60;;;;;;4993007;28;20508;-73
2022/09/28 11:19:52;;;;;;;1.73;1.00;;;30.50;45.60;;;;;;4992717;28;20802;-73
2022/09/28 11:22:40;;;;;;;2.17;1.33;;;32.30;42.50;;;;;;4992952;28;20423;-72
2022/09/28 11:25:15;;;;;;;1.10;0.80;;;33.70;41.80;;;;;;4992997;28;20408;-73
2022/09/28 11:28:03;;;;;;;4.90;1.50;;;34.80;40.10;;;;;;4992912;28;20828;-72
2022/09/28 11:30:44;;;;;;;1.10;0.90;;;35.40;38.30;;;;;;4993717;28;20408;-73
2022/09/28 11:33:13;;;;;;;1.73;1.10;;;34.30;37.00;;;;;;4992615;28;20404;-72
2022/09/28 11:35:49;;;;;;;1.30;1.00;;;32.60;38.70;;;;;;4992213;28;20462;-72
2022/09/28 11:38:30;;;;;;;1.63;1.00;;;30.60;40.00;;;;;;4994018;28;20404;-72
2022/09/28 11:41:38;;;;;;;1.97;1.63;;;28.90;41.50;;;;;;4992034;28;20502;-72
2022/09/28 11:44:25;;;;;;;1.30;1.13;;;27.70;44.80;;;;;;4992635;28;21075;-72
2022/09/28 11:47:28;;;;;;;1.40;1.00;;;27.20;45.60;;;;;;4993460;28;20455;-72
2022/09/28 11:50:03;;;;;;;2.07;1.13;;;26.90;46.60;;;;;;4993234;28;20452;-72
2022/09/28 11:52:31;;;;;;;1.40;0.80;;;25.90;47.10;;;;;;4992830;28;20494;-72
2022/09/28 11:55:16;;;;;;;5.10;1.30;;;25.40;48.70;;;;;;4992332;28;20487;-72
2022/09/28 11:57:59;;;;;;;2.10;1.00;;;24.70;49.70;;;;;;4992841;28;20497;-73
2022/09/28 12:00:26;;;;;;;1.20;0.70;;;24.10;49.40;;;;;;4992498;28;20407;-72
2022/09/28 12:02:59;;;;;;;2.73;1.10;;;23.50;50.30;;;;;;4992412;28;20834;-72
2022/09/28 12:05:32;;;;;;;2.20;1.03;;;22.90;51.70;;;;;;4992160;28;20410;-72
2022/09/28 12:08:05;;;;;;;1.40;0.90;;;22.30;52.90;;;;;;4992587;28;20410;-71
2022/09/28 12:10:59;;;;;;;2.67;0.90;;;21.70;53.40;;;;;;4992613;28;20405;-71
2022/09/28 12:13:34;;;;;;;1.77;1.00;;;21.10;55.20;;;;;;4991197;28;20433;-72
2022/09/28 12:16:04;;;;;;;2.07;0.70;;;20.30;56.10;;;;;;4991999;28;20462;-73
2022/09/28 12:18:51;;;;;;;1.93;1.00;;;19.90;58.40;;;;;;4991222;28;20784;-71
2022/09/28 12:21:39;;;;;;;1.20;0.90;;;19.50;60.20;;;;;;4992346;28;20960;-71
2022/09/28 12:24:25;;;;;;;2.80;1.30;;;19.00;62.60;;;;;;4992152;28;20423;-71
2022/09/28 12:27:09;;;;;;;2.60;1.70;;;18.60;70.10;;;;;;4991792;28;20558;-72
2022/09/28 12:29:38;;;;;;;6.83;1.23;;;18.30;77.80;;;;;;4992183;28;20952;-73
2022/09/28 12:32:29;;;;;;;1.90;1.07;;;18.20;84.20;;;;;;4992614;28;20991;-73
2022/09/28 12:34:56;;;;;;;1.50;0.90;;;18.00;89.50;;;;;;4995587;28;20447;-73
2022/09/28 12:37:56;;;;;;;2.00;0.80;;;17.90;91.30;;;;;;4995727;28;20424;-73
2022/09/28 12:40:52;;;;;;;3.63;1.13;;;17.80;92.60;;;;;;4995800;28;20898;-71
2022/09/28 12:43:27;;;;;;;2.73;0.93;;;17.70;95.10;;;;;;4995500;28;20432;-73
2022/09/28 12:46:15;;;;;;;1.67;1.00;;;17.70;94.60;;;;;;4995670;28;20428;-73
2022/09/28 12:49:05;;;;;;;2.93;0.90;;;17.60;98.70;;;;;;4994672;28;20983;-72
2022/09/28 12:51:41;;;;;;;1.63;1.03;;;17.50;99.90;;;;;;4995601;28;20434;-71
2022/09/28 12:54:24;;;;;;;1.10;0.80;;;17.50;99.90;;;;;;4995393;28;20408;-71
2022/09/28 12:57:28;;;;;;;5.73;1.10;;;17.40;99.90;;;;;;4995680;28;20519;-71
2022/09/28 13:00:05;;;;;;;1.30;1.17;;;17.50;99.90;;;;;;4994359;28;20783;-71
2022/09/28 13:02:40;;;;;;;1.20;0.90;;;17.60;99.90;;;;;;4995823;28;20490;-71
2022/09/28 13:05:24;;;;;;;1.67;1.13;;;17.90;99.90;;;;;;4995037;28;20498;-71
2022/09/28 13:08:15;;;;;;;2.60;0.90;;;18.20;99.90;;;;;;4995177;28;20403;-72
2022/09/28 13:10:54;;;;;;;1.20;1.00;;;18.40;99.90;;;;;;4995178;28;20415;-71
2022/09/28 13:13:45;;;;;;;1.10;1.00;;;18.50;99.90;;;;;;4995320;28;20408;-71
2022/09/28 13:16:40;;;;;;;1.60;1.10;;;18.40;99.90;;;;;;4993678;28;20988;-72
2022/09/28 13:19:15;;;;;;;4.80;1.00;;;18.20;99.90;;;;;;4995203;28;20482;-72
2022/09/28 13:22:17;;;;;;;1.10;0.80;;;18.00;99.90;;;;;;4995309;28;20396;-72
2022/09/28 13:24:43;;;;;;;1.10;0.83;;;17.90;99.90;;;;;;4995035;28;20407;-72
2022/09/28 13:27:13;;;;;;;1.43;0.87;;;18.10;99.90;;;;;;4994896;28;20483;-72
2022/09/28 13:29:41;;;;;;;1.77;0.80;;;18.70;99.90;;;;;;4994875;28;20937;-72